createdAt,value
2017-07-14T00:00:45.579Z,1022
2017-07-14T00:01:52.717Z,1022
2017-07-14T00:03:00.191Z,1021
2017-07-14T00:04:07.663Z,1022
2017-07-14T00:05:15.145Z,1022
2017-07-14T00:06:22.915Z,1021
2017-07-14T00:07:30.392Z,1022
2017-07-14T00:08:37.871Z,1022
2017-07-14T00:09:45.345Z,1021
2017-07-14T00:10:52.828Z,1021
2017-07-14T00:12:00.597Z,1022
2017-07-14T00:13:08.070Z,1021
2017-07-14T00:14:15.551Z,1022
2017-07-14T00:15:23.034Z,1021
2017-07-14T00:16:30.174Z,1022
2017-07-14T00:17:37.958Z,1022
2017-07-14T00:18:45.441Z,1021
2017-07-14T00:19:52.913Z,1021
2017-07-14T00:21:00.385Z,1022
2017-07-14T00:22:07.876Z,1022
2017-07-14T00:23:15.271Z,1021
2017-07-14T00:24:22.756Z,1022
2017-07-14T00:25:30.236Z,1021
2017-07-14T00:26:37.720Z,1021
2017-07-14T00:27:45.201Z,1021
2017-07-14T00:28:52.980Z,1021
2017-07-14T00:30:00.457Z,1021
2017-07-14T00:31:07.608Z,1021
2017-07-14T00:32:15.095Z,1022
2017-07-14T00:33:22.573Z,1021
2017-07-14T00:34:30.298Z,1022
2017-07-14T00:35:37.772Z,1021
2017-07-14T00:36:45.241Z,1022
2017-07-14T00:37:52.382Z,1021
2017-07-14T00:38:59.858Z,1022
2017-07-14T00:40:07.304Z,1022
2017-07-14T00:41:14.779Z,1021
2017-07-14T00:42:22.275Z,1022
2017-07-14T00:43:29.752Z,1022
2017-07-14T00:44:37.229Z,1021
2017-07-14T00:45:44.954Z,1021
2017-07-14T00:46:52.439Z,1021
2017-07-14T00:47:59.911Z,1021
2017-07-14T00:49:07.392Z,1022
2017-07-14T00:50:14.880Z,1021
2017-07-14T00:51:22.654Z,1022
2017-07-14T00:52:30.128Z,1022
2017-07-14T00:53:37.603Z,1022
2017-07-14T00:54:44.743Z,1022
2017-07-14T00:55:52.220Z,1021
2017-07-14T00:57:00.001Z,1022
2017-07-14T00:58:07.480Z,1021
2017-07-14T00:59:14.955Z,1022
2017-07-14T01:00:22.436Z,1022
2017-07-14T01:01:29.906Z,1021
2017-07-14T01:02:37.687Z,1022
2017-07-14T01:03:45.160Z,1022
2017-07-14T01:04:52.636Z,1021
2017-07-14T01:06:00.118Z,1021
2017-07-14T01:07:06.927Z,1021
2017-07-14T01:08:14.709Z,1022
2017-07-14T01:09:22.176Z,1022
2017-07-14T01:10:29.659Z,1021
2017-07-14T01:11:37.132Z,1021
2017-07-14T01:12:44.274Z,1021
2017-07-14T01:13:52.052Z,1021
2017-07-14T01:14:59.547Z,1021
2017-07-14T01:16:07.031Z,1022
2017-07-14T01:17:14.499Z,1021
2017-07-14T01:18:21.976Z,1022
2017-07-14T01:19:29.754Z,1022
2017-07-14T01:20:37.221Z,1022
2017-07-14T01:21:44.373Z,1022
2017-07-14T01:22:51.847Z,1021
2017-07-14T01:23:59.319Z,1021
2017-07-14T01:25:06.721Z,1022
2017-07-14T01:26:14.188Z,1022
2017-07-14T01:27:21.338Z,1021
2017-07-14T01:28:28.813Z,1021
2017-07-14T01:29:36.306Z,1022
2017-07-14T01:30:44.082Z,1021
2017-07-14T01:31:51.562Z,1021
2017-07-14T01:32:59.041Z,1021
2017-07-14T01:34:06.519Z,1021
2017-07-14T01:35:13.993Z,1021
2017-07-14T01:36:21.769Z,1021
2017-07-14T01:37:29.238Z,1021
2017-07-14T01:38:36.707Z,1021
2017-07-14T01:39:43.853Z,1021
2017-07-14T01:40:51.329Z,1021
2017-07-14T01:42:13.689Z,1021
2017-07-14T01:43:21.188Z,1021
2017-07-14T01:44:28.660Z,1021
2017-07-14T01:45:36.133Z,1022
2017-07-14T01:46:43.268Z,1022
2017-07-14T01:47:50.992Z,1022
2017-07-14T01:48:58.464Z,1021
2017-07-14T01:50:05.936Z,1021
2017-07-14T01:51:13.415Z,1022
2017-07-14T01:52:20.561Z,1022
2017-07-14T01:53:28.337Z,1021
2017-07-14T01:54:35.815Z,1021
2017-07-14T01:55:43.291Z,1021
2017-07-14T01:56:50.771Z,1021
2017-07-14T01:57:58.243Z,1021
2017-07-14T01:59:06.015Z,1021
2017-07-14T02:00:13.490Z,1021
2017-07-14T02:01:20.972Z,1021
2017-07-14T02:02:28.446Z,1021
2017-07-14T02:03:35.925Z,1022
2017-07-14T02:04:58.282Z,1021
2017-07-14T02:06:05.751Z,1022
2017-07-14T02:07:12.899Z,1022
2017-07-14T02:08:20.368Z,1021
2017-07-14T02:09:27.845Z,1021
2017-07-14T02:10:35.614Z,1021
2017-07-14T02:11:43.090Z,1022
2017-07-14T02:12:50.567Z,1021
2017-07-14T02:13:58.043Z,1021
2017-07-14T02:15:05.520Z,1021
2017-07-14T02:16:12.960Z,1021
2017-07-14T02:17:20.436Z,1022
2017-07-14T02:18:27.911Z,1022
2017-07-14T02:19:35.384Z,1022
2017-07-14T02:20:42.856Z,1022
2017-07-14T02:21:50.574Z,1021
2017-07-14T02:22:58.059Z,1021
2017-07-14T02:24:04.873Z,1022
2017-07-14T02:25:12.019Z,1021
2017-07-14T02:26:19.488Z,1021
2017-07-14T02:27:27.282Z,1021
2017-07-14T02:28:34.754Z,1021
2017-07-14T02:29:42.229Z,1021
2017-07-14T02:30:49.705Z,1021
2017-07-14T02:31:57.181Z,1021
2017-07-14T02:33:04.955Z,1021
2017-07-14T02:34:12.435Z,1021
2017-07-14T02:35:19.917Z,1021
2017-07-14T02:36:27.391Z,1021
2017-07-14T02:37:34.535Z,1021
2017-07-14T02:38:42.312Z,1021
2017-07-14T02:39:49.793Z,1021
2017-07-14T02:40:57.273Z,1021
2017-07-14T02:42:04.747Z,1020
2017-07-14T02:43:12.225Z,1021
2017-07-14T02:44:19.949Z,1021
2017-07-14T02:45:27.423Z,1021
2017-07-14T02:46:34.899Z,1020
2017-07-14T02:47:42.367Z,1021
2017-07-14T02:48:49.842Z,1021
2017-07-14T02:49:57.617Z,1021
2017-07-14T02:51:05.118Z,1020
2017-07-14T02:52:12.260Z,1021
2017-07-14T02:53:19.403Z,1021
2017-07-14T02:54:26.893Z,1021
2017-07-14T02:55:34.669Z,1020
2017-07-14T02:56:42.155Z,1021
2017-07-14T02:57:49.625Z,1021
2017-07-14T02:58:57.100Z,1020
2017-07-14T03:00:04.584Z,1021
2017-07-14T03:01:12.311Z,1021
2017-07-14T03:02:19.786Z,1021
2017-07-14T03:03:26.928Z,1020
2017-07-14T03:04:34.408Z,1021
2017-07-14T03:05:41.882Z,1021
2017-07-14T03:06:49.653Z,1021
2017-07-14T03:07:57.129Z,1021
2017-07-14T03:09:04.599Z,1021
2017-07-14T03:10:12.069Z,1021
2017-07-14T03:11:19.543Z,1021
2017-07-14T03:12:27.326Z,1021
2017-07-14T03:13:34.807Z,1021
2017-07-14T03:14:41.948Z,1021
2017-07-14T03:15:49.419Z,1021
2017-07-14T03:16:56.894Z,1020
2017-07-14T03:18:04.330Z,1021
2017-07-14T03:19:11.821Z,1020
2017-07-14T03:20:19.300Z,1021
2017-07-14T03:21:26.767Z,1021
2017-07-14T03:22:34.241Z,1021
2017-07-14T03:23:42.012Z,1021
2017-07-14T03:24:49.484Z,1021
2017-07-14T03:25:56.961Z,1021
2017-07-14T03:27:04.433Z,1021
2017-07-14T03:28:11.908Z,1021
2017-07-14T03:29:19.018Z,1021
2017-07-14T03:30:26.712Z,1020
2017-07-14T03:31:34.181Z,1021
2017-07-14T03:32:41.657Z,1021
2017-07-14T03:33:49.122Z,1021
2017-07-14T03:34:56.853Z,1021
2017-07-14T03:36:04.327Z,1021
2017-07-14T03:37:11.799Z,1020
2017-07-14T03:38:19.307Z,1021
2017-07-14T03:39:26.778Z,1021
2017-07-14T03:40:34.273Z,1021
2017-07-14T03:41:41.743Z,1021
2017-07-14T03:42:48.885Z,1021
2017-07-14T03:43:56.580Z,1021
2017-07-14T03:45:04.050Z,1021
2017-07-14T03:46:11.829Z,1021
2017-07-14T03:47:18.970Z,1021
2017-07-14T03:48:26.111Z,1021
2017-07-14T03:49:33.586Z,1021
2017-07-14T03:50:41.072Z,1021
2017-07-14T03:51:48.848Z,1021
2017-07-14T03:52:56.323Z,1021
2017-07-14T03:54:03.788Z,1021
2017-07-14T03:55:11.266Z,1020
2017-07-14T03:56:18.406Z,1020
2017-07-14T03:57:26.137Z,1020
2017-07-14T03:58:33.645Z,1021
2017-07-14T03:59:41.118Z,1021
2017-07-14T04:00:48.592Z,1021
2017-07-14T04:01:56.071Z,1021
2017-07-14T04:03:03.547Z,1021
2017-07-14T04:04:11.018Z,1021
2017-07-14T04:05:18.493Z,1021
2017-07-14T04:06:25.967Z,1020
2017-07-14T04:07:33.745Z,1021
2017-07-14T04:08:41.221Z,1021
2017-07-14T04:09:48.697Z,1021
2017-07-14T04:10:56.170Z,1021
2017-07-14T04:12:03.642Z,1020
2017-07-14T04:13:11.416Z,1021
2017-07-14T04:14:18.895Z,1021
2017-07-14T04:15:26.376Z,1020
2017-07-14T04:16:33.851Z,1021
2017-07-14T04:17:41.326Z,1021
2017-07-14T04:18:49.123Z,1021
2017-07-14T04:19:56.597Z,1020
2017-07-14T04:21:04.071Z,1021
2017-07-14T04:22:11.553Z,1021
2017-07-14T04:23:19.022Z,1021
2017-07-14T04:24:26.753Z,1021
2017-07-14T04:25:34.231Z,1021
2017-07-14T04:26:41.705Z,1021
2017-07-14T04:27:49.179Z,1021
2017-07-14T04:28:56.655Z,1021
2017-07-14T04:30:04.388Z,1021
2017-07-14T04:31:11.867Z,1021
2017-07-14T04:32:19.003Z,1020
2017-07-14T04:33:26.478Z,1021
2017-07-14T04:34:33.958Z,1021
2017-07-14T04:35:41.736Z,1021
2017-07-14T04:36:49.213Z,1021
2017-07-14T04:37:56.690Z,1021
2017-07-14T04:39:04.171Z,1020
2017-07-14T04:40:11.640Z,1021
2017-07-14T04:41:19.365Z,1021
2017-07-14T04:42:26.834Z,1021
2017-07-14T04:43:34.310Z,1021
2017-07-14T04:44:41.784Z,1021
2017-07-14T04:45:49.259Z,1021
2017-07-14T04:46:56.731Z,1021
2017-07-14T04:48:04.207Z,1021
2017-07-14T04:49:12.010Z,1021
2017-07-14T04:50:19.473Z,1021
2017-07-14T04:51:26.951Z,1020
2017-07-14T04:52:34.425Z,1021
2017-07-14T04:53:41.906Z,1021
2017-07-14T04:54:49.684Z,1020
2017-07-14T04:55:57.153Z,1020
2017-07-14T04:57:04.628Z,1020
2017-07-14T04:58:11.770Z,1021
2017-07-14T04:59:18.916Z,1021
2017-07-14T05:00:26.364Z,1020
2017-07-14T05:01:33.836Z,1020
2017-07-14T05:02:41.313Z,1021
2017-07-14T05:03:48.787Z,1020
2017-07-14T05:04:56.261Z,1021
2017-07-14T05:06:04.040Z,1021
2017-07-14T05:07:11.508Z,1021
2017-07-14T05:08:18.984Z,1020
2017-07-14T05:09:26.475Z,1021
2017-07-14T05:10:33.620Z,1021
2017-07-14T05:11:41.396Z,1021
2017-07-14T05:12:48.873Z,1021
2017-07-14T05:13:56.349Z,1021
2017-07-14T05:15:03.824Z,1021
2017-07-14T05:16:11.295Z,1021
2017-07-14T05:17:18.742Z,1021
2017-07-14T05:18:26.216Z,1021
2017-07-14T05:19:33.700Z,1021
2017-07-14T05:20:40.846Z,1021
2017-07-14T05:21:48.318Z,1021
2017-07-14T05:22:56.098Z,1020
2017-07-14T05:24:03.571Z,1020
2017-07-14T05:25:11.050Z,1021
2017-07-14T05:26:18.518Z,1021
2017-07-14T05:27:26.006Z,1020
2017-07-14T05:28:33.159Z,1021
2017-07-14T05:29:40.296Z,1021
2017-07-14T05:30:47.771Z,1021
2017-07-14T05:31:55.544Z,1021
2017-07-14T05:33:03.018Z,1021
2017-07-14T05:34:10.489Z,1021
2017-07-14T05:35:17.968Z,1021
2017-07-14T05:36:25.443Z,1021
2017-07-14T05:37:33.219Z,1021
2017-07-14T05:38:40.693Z,1021
2017-07-14T05:39:48.170Z,1021
2017-07-14T05:40:55.640Z,1021
2017-07-14T05:42:02.788Z,1021
2017-07-14T05:43:10.571Z,1021
2017-07-14T05:44:18.053Z,1021
2017-07-14T05:45:25.527Z,1021
2017-07-14T05:46:33.000Z,1021
2017-07-14T05:47:40.482Z,1021
2017-07-14T05:48:47.975Z,1021
2017-07-14T05:49:55.462Z,1021
2017-07-14T05:51:02.928Z,1021
2017-07-14T05:52:09.744Z,1021
2017-07-14T05:53:17.522Z,1021
2017-07-14T05:54:24.998Z,1021
2017-07-14T05:55:32.477Z,1021
2017-07-14T05:56:39.953Z,1021
2017-07-14T05:57:47.425Z,1021
2017-07-14T05:58:55.202Z,1021
2017-07-14T06:00:02.677Z,1021
2017-07-14T06:01:10.154Z,1021
2017-07-14T06:02:17.632Z,1020
2017-07-14T06:03:25.105Z,1020
2017-07-14T06:04:32.214Z,1021
2017-07-14T06:05:39.690Z,1021
2017-07-14T06:06:47.163Z,1021
2017-07-14T06:07:54.637Z,1021
2017-07-14T06:09:02.110Z,1021
2017-07-14T06:10:09.895Z,1021
2017-07-14T06:11:17.373Z,1021
2017-07-14T06:12:24.847Z,1021
2017-07-14T06:13:32.326Z,1021
2017-07-14T06:14:39.800Z,1021
2017-07-14T06:15:47.273Z,1020
2017-07-14T06:16:54.741Z,1021
2017-07-14T06:18:01.891Z,1020
2017-07-14T06:19:09.370Z,1021
2017-07-14T06:20:16.849Z,1021
2017-07-14T06:21:24.303Z,1021
2017-07-14T06:22:31.465Z,1020
2017-07-14T06:23:38.940Z,1021
2017-07-14T06:24:46.087Z,1021
2017-07-14T06:25:53.569Z,1021
2017-07-14T06:27:01.348Z,1021
2017-07-14T06:28:08.824Z,1021
2017-07-14T06:29:16.313Z,1021
2017-07-14T06:30:23.790Z,1021
2017-07-14T06:31:31.273Z,1021
2017-07-14T06:32:39.100Z,1021
2017-07-14T06:33:46.582Z,1021
2017-07-14T06:34:53.715Z,1021
2017-07-14T06:36:01.197Z,1021
2017-07-14T06:37:08.337Z,1021
2017-07-14T06:38:16.112Z,1021
2017-07-14T06:39:23.592Z,1021
2017-07-14T06:40:31.274Z,1021
2017-07-14T06:41:38.754Z,1021
2017-07-14T06:42:46.231Z,1021
2017-07-14T06:43:54.173Z,1021
2017-07-14T06:45:01.665Z,1021
2017-07-14T06:46:09.146Z,1021
2017-07-14T06:47:16.288Z,1021
2017-07-14T06:48:23.766Z,1021
2017-07-14T06:49:31.551Z,1021
2017-07-14T06:50:39.026Z,1021
2017-07-14T06:51:46.705Z,1021
2017-07-14T06:52:54.180Z,1021
2017-07-14T06:54:01.659Z,1021
2017-07-14T06:55:09.138Z,1021
2017-07-14T06:56:16.623Z,1021
2017-07-14T06:57:24.102Z,1021
2017-07-14T06:58:31.580Z,1021
2017-07-14T06:59:39.064Z,1021
2017-07-14T07:00:46.841Z,1021
2017-07-14T07:01:54.319Z,1021
2017-07-14T07:03:01.794Z,1021
2017-07-14T07:04:09.271Z,1021
2017-07-14T07:05:16.746Z,1020
2017-07-14T07:06:24.202Z,1021
2017-07-14T07:07:31.350Z,1020
2017-07-14T07:08:38.825Z,1021
2017-07-14T07:09:46.302Z,1021
2017-07-14T07:10:53.777Z,1021
2017-07-14T07:12:01.257Z,1021
2017-07-14T07:13:08.735Z,1021
2017-07-14T07:14:16.220Z,1021
2017-07-14T07:15:23.379Z,1022
2017-07-14T07:16:30.861Z,1022
2017-07-14T07:17:38.634Z,1021
2017-07-14T07:18:46.119Z,1021
2017-07-14T07:19:53.595Z,1021
2017-07-14T07:21:01.069Z,1021
2017-07-14T07:22:08.546Z,1021
2017-07-14T07:23:16.323Z,1021
2017-07-14T07:24:23.807Z,1021
2017-07-14T07:25:31.286Z,1021
2017-07-14T07:26:38.776Z,1021
2017-07-14T07:27:46.294Z,1021
2017-07-14T07:28:53.750Z,1021
2017-07-14T07:30:01.228Z,1021
2017-07-14T07:31:08.379Z,1021
2017-07-14T07:32:15.856Z,1021
2017-07-14T07:33:23.334Z,1021
2017-07-14T07:34:30.818Z,1022
2017-07-14T07:35:38.297Z,1021
2017-07-14T07:36:45.777Z,1021
2017-07-14T07:37:53.252Z,1022
2017-07-14T07:39:00.725Z,1021
2017-07-14T07:40:08.507Z,1021
2017-07-14T07:41:15.989Z,1021
2017-07-14T07:42:23.474Z,1021
2017-07-14T07:43:30.615Z,1021
2017-07-14T07:44:38.094Z,1021
2017-07-14T07:45:45.881Z,1021
2017-07-14T07:46:53.362Z,1021
2017-07-14T07:48:00.511Z,1021
2017-07-14T07:49:07.995Z,1021
2017-07-14T07:50:15.138Z,1021
2017-07-14T07:51:22.580Z,1021
2017-07-14T07:52:30.061Z,1021
2017-07-14T07:53:37.545Z,1021
2017-07-14T07:54:45.022Z,1021
2017-07-14T07:55:52.507Z,1022
2017-07-14T07:56:59.655Z,1021
2017-07-14T07:58:07.146Z,1021
2017-07-14T07:59:14.300Z,1021
2017-07-14T08:00:21.779Z,1021
2017-07-14T08:01:29.269Z,1021
2017-07-14T08:02:37.053Z,1022
2017-07-14T08:03:44.523Z,1022
2017-07-14T08:04:52.006Z,1022
2017-07-14T08:05:59.491Z,1021
2017-07-14T08:07:06.975Z,1022
2017-07-14T08:08:14.700Z,1022
2017-07-14T08:09:22.176Z,1022
2017-07-14T08:10:29.661Z,1022
2017-07-14T08:11:37.138Z,1022
2017-07-14T08:12:44.291Z,1022
2017-07-14T08:13:52.025Z,1022
2017-07-14T08:14:59.520Z,1022
2017-07-14T08:16:06.998Z,1022
2017-07-14T08:17:14.484Z,1022
2017-07-14T08:18:21.973Z,1022
2017-07-14T08:19:29.380Z,1022
2017-07-14T08:20:36.868Z,1021
2017-07-14T08:21:44.353Z,1022
2017-07-14T08:22:51.859Z,1022
2017-07-14T08:23:59.343Z,1022
2017-07-14T08:25:07.073Z,1022
2017-07-14T08:26:14.555Z,1021
2017-07-14T08:27:22.041Z,1022
2017-07-14T08:28:29.191Z,1022
2017-07-14T08:29:36.302Z,1022
2017-07-14T08:30:44.086Z,1022
2017-07-14T08:31:51.564Z,1022
2017-07-14T08:32:59.044Z,1022
2017-07-14T08:34:06.202Z,1022
2017-07-14T08:35:13.683Z,1022
2017-07-14T08:36:21.468Z,1022
2017-07-14T08:37:28.955Z,1022
2017-07-14T08:38:36.440Z,1022
2017-07-14T08:39:43.584Z,1022
2017-07-14T08:40:50.737Z,1022
2017-07-14T08:41:58.223Z,1021
2017-07-14T08:43:05.708Z,1021
2017-07-14T08:44:13.110Z,1021
2017-07-14T08:45:20.591Z,1022
2017-07-14T08:46:28.064Z,1022
2017-07-14T08:47:35.544Z,1022
2017-07-14T08:48:43.051Z,1022
2017-07-14T08:49:50.780Z,1022
2017-07-14T08:50:58.265Z,1021
2017-07-14T08:52:05.746Z,1021
2017-07-14T08:53:12.900Z,1022
2017-07-14T08:54:20.382Z,1022
2017-07-14T08:55:27.862Z,1022
2017-07-14T08:56:35.011Z,1021
2017-07-14T08:57:42.494Z,1021
2017-07-14T08:58:50.272Z,1022
2017-07-14T08:59:57.748Z,1022
2017-07-14T09:01:05.225Z,1021
2017-07-14T09:02:12.703Z,1022
2017-07-14T09:03:20.188Z,1021
2017-07-14T09:04:27.961Z,1022
2017-07-14T09:05:35.449Z,1022
2017-07-14T09:06:42.926Z,1021
2017-07-14T09:07:50.404Z,1022
2017-07-14T09:08:57.892Z,1022
2017-07-14T09:10:05.685Z,1022
2017-07-14T09:11:13.174Z,1022
2017-07-14T09:12:20.691Z,1022
2017-07-14T09:13:27.843Z,1022
2017-07-14T09:14:35.342Z,1022
2017-07-14T09:15:42.830Z,1022
2017-07-14T09:16:49.314Z,1022
2017-07-14T09:17:56.793Z,1021
2017-07-14T09:19:04.280Z,1021
2017-07-14T09:20:11.763Z,1022
2017-07-14T09:21:19.545Z,1022
2017-07-14T09:22:27.023Z,1022
2017-07-14T09:23:34.175Z,1021
2017-07-14T09:24:40.997Z,1022
2017-07-14T09:25:48.479Z,1021
2017-07-14T09:26:56.262Z,1022
2017-07-14T09:28:03.748Z,1020
2017-07-14T09:29:11.228Z,1015
2017-07-14T09:30:18.713Z,993
2017-07-14T09:31:25.867Z,1012
2017-07-14T09:32:33.638Z,1020
2017-07-14T09:33:41.121Z,1020
2017-07-14T09:34:48.267Z,1021
2017-07-14T09:35:55.758Z,1021
2017-07-14T09:37:03.237Z,1021
2017-07-14T09:38:11.020Z,1022
2017-07-14T09:39:18.499Z,1022
2017-07-14T09:40:25.980Z,1021
2017-07-14T09:41:33.457Z,1021
2017-07-14T09:42:40.939Z,1022
2017-07-14T09:43:48.722Z,1022
2017-07-14T09:44:56.206Z,1022
2017-07-14T09:46:03.711Z,1022
2017-07-14T09:47:11.181Z,1022
2017-07-14T09:48:18.664Z,1021
2017-07-14T09:49:26.451Z,1021
2017-07-14T09:50:33.935Z,1022
2017-07-14T09:51:41.414Z,1022
2017-07-14T09:52:48.889Z,1021
2017-07-14T09:53:56.362Z,1021
2017-07-14T09:55:03.847Z,1022
2017-07-14T09:56:11.331Z,1022
2017-07-14T09:57:18.146Z,1021
2017-07-14T09:58:25.629Z,1022
2017-07-14T09:59:33.107Z,1021
2017-07-14T10:00:40.552Z,1022
2017-07-14T10:01:47.702Z,1022
2017-07-14T10:02:55.178Z,1021
2017-07-14T10:04:02.659Z,1021
2017-07-14T10:05:10.153Z,1022
2017-07-14T10:06:17.928Z,1021
2017-07-14T10:07:24.741Z,1022
2017-07-14T10:08:32.223Z,1021
2017-07-14T10:09:39.376Z,1021
2017-07-14T10:10:46.858Z,1021
2017-07-14T10:11:54.638Z,1021
2017-07-14T10:13:02.129Z,1021
2017-07-14T10:14:09.617Z,1021
2017-07-14T10:15:17.326Z,1021
2017-07-14T10:16:24.809Z,1021
2017-07-14T10:17:32.287Z,1021
2017-07-14T10:18:39.763Z,1021
2017-07-14T10:19:46.918Z,1021
2017-07-14T10:20:54.391Z,1021
2017-07-14T10:22:02.171Z,1021
2017-07-14T10:23:09.657Z,1021
2017-07-14T10:24:17.353Z,1021
2017-07-14T10:25:24.871Z,1021
2017-07-14T10:26:32.357Z,1021
2017-07-14T10:27:39.802Z,1022
2017-07-14T10:28:46.954Z,1021
2017-07-14T10:29:54.456Z,1021
2017-07-14T10:31:01.934Z,1021
2017-07-14T10:32:09.406Z,1021
2017-07-14T10:33:17.146Z,1021
2017-07-14T10:34:24.624Z,1022
2017-07-14T10:35:32.105Z,1021
2017-07-14T10:36:39.587Z,1021
2017-07-14T10:37:47.065Z,1021
2017-07-14T10:38:54.854Z,1022
2017-07-14T10:40:01.670Z,1021
2017-07-14T10:41:09.154Z,1022
2017-07-14T10:42:16.638Z,1021
2017-07-14T10:43:24.122Z,1021
2017-07-14T10:44:31.857Z,1021
2017-07-14T10:45:39.342Z,1021
2017-07-14T10:46:46.822Z,1021
2017-07-14T10:47:53.966Z,1021
2017-07-14T10:49:01.470Z,1021
2017-07-14T10:50:09.251Z,1021
2017-07-14T10:51:16.741Z,1021
2017-07-14T10:52:24.222Z,1021
2017-07-14T10:53:31.702Z,1021
2017-07-14T10:54:39.184Z,1021
2017-07-14T10:55:46.979Z,1021
2017-07-14T10:56:54.461Z,1021
2017-07-14T10:58:01.942Z,1021
2017-07-14T10:59:09.425Z,1020
2017-07-14T11:00:16.590Z,1021
2017-07-14T11:01:23.747Z,1021
2017-07-14T11:02:31.227Z,1021
2017-07-14T11:03:38.719Z,1021
2017-07-14T11:04:46.199Z,1021
2017-07-14T11:05:53.676Z,1021
2017-07-14T11:07:01.126Z,1021
2017-07-14T11:08:08.275Z,1021
2017-07-14T11:09:15.426Z,1021
2017-07-14T11:10:22.916Z,1020
2017-07-14T11:11:30.068Z,1021
2017-07-14T11:12:37.872Z,1020
2017-07-14T11:13:45.344Z,1020
2017-07-14T11:14:52.494Z,1020
2017-07-14T11:15:59.973Z,1021
2017-07-14T11:17:07.461Z,1021
2017-07-14T11:18:15.263Z,1021
2017-07-14T11:19:22.742Z,1020
2017-07-14T11:20:30.230Z,1021
2017-07-14T11:21:37.710Z,1021
2017-07-14T11:22:45.195Z,1021
2017-07-14T11:23:52.680Z,1021
2017-07-14T11:25:00.161Z,1021
2017-07-14T11:26:07.642Z,1021
2017-07-14T11:27:15.123Z,1021
2017-07-14T11:28:22.610Z,1021
2017-07-14T11:29:30.398Z,1020
2017-07-14T11:30:37.547Z,1020
2017-07-14T11:31:45.036Z,1021
2017-07-14T11:32:52.217Z,1020
2017-07-14T11:33:59.695Z,1021
2017-07-14T11:35:07.480Z,1020
2017-07-14T11:36:14.970Z,1020
2017-07-14T11:37:22.453Z,1020
2017-07-14T11:38:29.944Z,1021
2017-07-14T11:39:37.432Z,1020
2017-07-14T11:40:45.225Z,1021
2017-07-14T11:41:52.700Z,1021
2017-07-14T11:43:00.187Z,1020
2017-07-14T11:44:07.679Z,1021
2017-07-14T11:45:15.160Z,1021
2017-07-14T11:46:22.610Z,1021
2017-07-14T11:47:30.087Z,1021
2017-07-14T11:48:37.571Z,1021
2017-07-14T11:49:45.054Z,1021
2017-07-14T11:50:52.207Z,1021
2017-07-14T11:51:59.985Z,1020
2017-07-14T11:53:07.470Z,1020
2017-07-14T11:54:14.961Z,1020
2017-07-14T11:55:22.454Z,1019
2017-07-14T11:56:29.932Z,1014
2017-07-14T11:57:37.715Z,997
2017-07-14T11:58:44.530Z,687
2017-07-14T11:59:52.021Z,608
2017-07-14T12:00:59.505Z,490
2017-07-14T12:02:06.659Z,459
2017-07-14T12:03:14.439Z,467
2017-07-14T12:04:21.924Z,436
2017-07-14T12:05:29.405Z,436
2017-07-14T12:06:36.884Z,204
2017-07-14T12:07:44.030Z,208
2017-07-14T12:08:51.809Z,285
2017-07-14T12:09:59.296Z,271
2017-07-14T12:11:06.777Z,261
2017-07-14T12:12:14.265Z,271
2017-07-14T12:13:21.093Z,272
2017-07-14T12:14:28.875Z,277
2017-07-14T12:15:36.369Z,294
2017-07-14T12:16:43.865Z,293
2017-07-14T12:17:51.351Z,288
2017-07-14T12:18:58.835Z,301
2017-07-14T12:20:06.289Z,284
2017-07-14T12:21:13.444Z,279
2017-07-14T12:22:20.265Z,283
2017-07-14T12:23:27.755Z,285
2017-07-14T12:24:34.909Z,282
2017-07-14T12:25:42.389Z,279
2017-07-14T12:26:49.532Z,281
2017-07-14T12:27:57.016Z,291
2017-07-14T12:29:04.498Z,285
2017-07-14T12:30:12.278Z,277
2017-07-14T12:31:19.756Z,279
2017-07-14T12:32:27.248Z,280
2017-07-14T12:33:34.056Z,287
2017-07-14T12:34:41.216Z,285
2017-07-14T12:35:48.669Z,283
2017-07-14T12:36:55.506Z,284
2017-07-14T12:38:02.659Z,284
2017-07-14T12:39:10.140Z,283
2017-07-14T12:40:17.286Z,284
2017-07-14T12:41:25.069Z,285
2017-07-14T12:42:32.228Z,280
2017-07-14T12:43:39.708Z,276
2017-07-14T12:44:46.851Z,277
2017-07-14T12:45:54.327Z,279
2017-07-14T12:47:02.112Z,279
2017-07-14T12:48:09.263Z,280
2017-07-14T12:49:16.417Z,280
2017-07-14T12:50:23.900Z,281
2017-07-14T12:51:31.379Z,281
2017-07-14T12:52:38.199Z,280
2017-07-14T12:53:45.686Z,281
2017-07-14T12:54:53.172Z,282
2017-07-14T12:56:00.651Z,282
2017-07-14T12:57:08.135Z,283
2017-07-14T12:58:15.913Z,283
2017-07-14T12:59:23.057Z,283
2017-07-14T13:00:30.533Z,284
2017-07-14T13:01:38.020Z,284
2017-07-14T13:02:45.500Z,284
2017-07-14T13:03:53.281Z,284
2017-07-14T13:05:00.431Z,287
2017-07-14T13:06:07.608Z,289
2017-07-14T13:07:15.098Z,288
2017-07-14T13:08:22.580Z,289
2017-07-14T13:09:30.032Z,292
2017-07-14T13:10:37.181Z,284
2017-07-14T13:11:44.667Z,285
2017-07-14T13:12:51.823Z,286
2017-07-14T13:13:59.302Z,287
2017-07-14T13:15:07.136Z,287
2017-07-14T13:16:14.290Z,288
2017-07-14T13:17:21.439Z,288
2017-07-14T13:18:28.921Z,289
2017-07-14T13:19:36.077Z,290
2017-07-14T13:20:43.578Z,285
2017-07-14T13:21:51.063Z,285
2017-07-14T13:22:58.543Z,290
2017-07-14T13:24:06.026Z,288
2017-07-14T13:25:13.520Z,291
2017-07-14T13:26:21.004Z,289
2017-07-14T13:27:28.779Z,289
2017-07-14T13:28:36.263Z,289
2017-07-14T13:29:43.755Z,287
2017-07-14T13:30:50.901Z,289
2017-07-14T13:31:58.382Z,290
2017-07-14T13:33:05.489Z,291
2017-07-14T13:34:12.969Z,289
2017-07-14T13:35:20.471Z,291
2017-07-14T13:36:27.946Z,291
2017-07-14T13:37:35.431Z,292
2017-07-14T13:38:43.210Z,294
2017-07-14T13:39:50.695Z,293
2017-07-14T13:40:57.852Z,296
2017-07-14T13:42:05.330Z,296
2017-07-14T13:43:12.814Z,298
2017-07-14T13:44:20.605Z,295
2017-07-14T13:45:28.083Z,296
2017-07-14T13:46:35.230Z,296
2017-07-14T13:47:42.720Z,296
2017-07-14T13:48:49.877Z,295
2017-07-14T13:49:57.330Z,295
2017-07-14T13:51:04.813Z,294
2017-07-14T13:52:12.299Z,295
2017-07-14T13:53:19.447Z,295
2017-07-14T13:54:26.940Z,295
2017-07-14T13:55:34.422Z,296
2017-07-14T13:56:42.255Z,296
2017-07-14T13:57:49.733Z,297
2017-07-14T13:58:57.214Z,297
2017-07-14T14:00:04.689Z,297
2017-07-14T14:01:12.170Z,297
2017-07-14T14:02:19.953Z,297
2017-07-14T14:03:27.099Z,297
2017-07-14T14:04:34.255Z,297
2017-07-14T14:05:41.408Z,298
2017-07-14T14:06:48.234Z,300
2017-07-14T14:07:56.071Z,301
2017-07-14T14:09:03.553Z,300
2017-07-14T14:10:11.054Z,301
2017-07-14T14:11:18.541Z,303
2017-07-14T14:12:25.698Z,303
2017-07-14T14:13:33.535Z,303
2017-07-14T14:14:40.355Z,303
2017-07-14T14:15:47.509Z,303
2017-07-14T14:16:54.666Z,305
2017-07-14T14:18:01.811Z,305
2017-07-14T14:19:09.296Z,306
2017-07-14T14:20:16.775Z,308
2017-07-14T14:21:24.258Z,310
2017-07-14T14:22:31.410Z,309
2017-07-14T14:23:38.894Z,308
2017-07-14T14:24:46.682Z,307
2017-07-14T14:25:53.828Z,308
2017-07-14T14:27:00.985Z,309
2017-07-14T14:28:08.472Z,313
2017-07-14T14:29:15.957Z,315
2017-07-14T14:30:23.440Z,311
2017-07-14T14:31:30.893Z,314
2017-07-14T14:32:38.042Z,313
2017-07-14T14:33:45.190Z,315
2017-07-14T14:34:52.673Z,307
2017-07-14T14:35:59.154Z,304
2017-07-14T14:37:06.653Z,304
2017-07-14T14:38:14.139Z,302
2017-07-14T14:39:21.624Z,302
2017-07-14T14:40:28.777Z,302
2017-07-14T14:41:36.263Z,302
2017-07-14T14:42:43.490Z,303
2017-07-14T14:43:50.977Z,303
2017-07-14T14:44:58.687Z,302
2017-07-14T14:46:06.172Z,303
2017-07-14T14:47:13.657Z,303
2017-07-14T14:48:21.015Z,304
2017-07-14T14:49:28.163Z,304
2017-07-14T14:50:35.650Z,304
2017-07-14T14:51:43.139Z,304
2017-07-14T14:52:50.298Z,304
2017-07-14T14:53:57.744Z,305
2017-07-14T14:55:04.901Z,305
2017-07-14T14:56:12.052Z,306
2017-07-14T14:57:19.212Z,305
2017-07-14T14:58:26.365Z,306
2017-07-14T14:59:33.820Z,306
2017-07-14T15:00:40.634Z,306
2017-07-14T15:01:48.117Z,306
2017-07-14T15:02:55.603Z,306
2017-07-14T15:04:03.087Z,306
2017-07-14T15:05:10.871Z,307